Messwerte Athens

Temperatur

Temperatur
°C
1623434400 14.00 14.00 30
1623438000 15.00 15.00 30
1623441600 16.00 16.00 29
1623445200 17.00 17.00 28
1623448800 18.00 18.00 24
1623452400 19.00 19.00 25
1623456000 20.00 20.00 24
1623459600 21.00 21.00 24
1623463200 22.00 22.00 23
1623466800 23.00 23.00 23
1623470400 0.00 0.00 23
1623474000 1.00 1.00
1623477600 2.00 2.00 23
1623481200 3.00 3.00
1623484800 4.00 4.00 23
1623488400 5.00 5.00 23
1623492000 6.00 6.00 23
1623495600 7.00 7.00 23
1623499200 8.00 8.00 24
1623502800 9.00 9.00 26
1623506400 10.00 10.00 28
1623510000 11.00 11.00 30
1623513600 12.00 12.00 31
1623517200 13.00 13.00 32

Aktuellste Messwerte

Wettercharakter
Wetter: wechselnd bewölkt
Temperatur
32 °C
Feuchtigkeit
50 %
Wind
10 km/h, -
Luftdruck
1009 hPa
Messzeit: 12. Juni 2021, 14.00Datenquelle: METAR

Weitere Messstationen in der Nähe

Messstation Temperatur Entfernung
Winder 31 °C 32 km
Greensboro 31.0 °C 42 km
Gainesville 31 °C 59 km
Anderson 25 °C 82 km
Thomson 28 °C 87 km
Clemson 31 °C 89 km
Milledgeville 32 °C 89 km

Wind

Windrichtung Böen Mittelwind
° km/h km/h
1623434400 14.00 13.00 - 14.00 260° 30 10
1623438000 15.00 14.00 - 15.00 270° 15
1623441600 16.00 15.00 - 16.00 260° 5
1623445200 17.00 16.00 - 17.00 240° 5
1623448800 18.00 17.00 - 18.00 270° 5
1623452400 19.00 18.00 - 19.00 250° 5
1623456000 20.00 19.00 - 20.00 240° 5
1623459600 21.00 20.00 - 21.00 250° 5
1623463200 22.00 21.00 - 22.00 250° 5
1623466800 23.00 22.00 - 23.00 260° 5
1623470400 0.00 23.00 - 0.00 230° 5
1623474000 1.00 0.00 - 1.00
1623477600 2.00 1.00 - 2.00 250° 10
1623481200 3.00 2.00 - 3.00
1623484800 4.00 3.00 - 4.00 260° 10
1623488400 5.00 4.00 - 5.00 270° 5
1623492000 6.00 5.00 - 6.00 260° 5
1623495600 7.00 6.00 - 7.00
1623499200 8.00 7.00 - 8.00 270° 10
1623502800 9.00 8.00 - 9.00 300° 15
1623506400 10.00 9.00 - 10.00 320° 10
1623510000 11.00 10.00 - 11.00 10
1623513600 12.00 11.00 - 12.00 300° 10
1623517200 13.00 12.00 - 13.00 310° 15

Ihre Wetterstation

Fehlt Ihre Wetterstation auf unserem Portal?

Schreiben Sie an network@meteonews.ch

Klima

Wann ist es am wärmsten? Wann regnet es am wenigsten? Unsere Klimadaten geben Auskunft.